Time;durP1;ratioP1;P1;durP2;ratioP2;P2;SDS_P1;SDS_P2;PMS_P1;PMS_P2;Temp;Humidity;BMP_temperature;BMP_pressure;BME280_temperature;BME280_humidity;BME280_pressure;Samples;Min_cycle;Max_cycle;Signal;HPM_P1;HPM_P2
2022/01/27 00:05:32;;;;;;;5.37;3.50;;;;;;;18.57;48.05;101849.50;5032713;28;20969;-59
2022/01/27 00:08:25;;;;;;;6.87;4.23;;;;;;;18.61;47.62;101841.91;5032899;28;20462;-60
2022/01/27 00:10:58;;;;;;;6.37;3.90;;;;;;;18.61;48.03;101850.50;5032357;28;20206;-59
2022/01/27 00:13:29;;;;;;;6.17;4.20;;;;;;;18.64;47.80;101852.66;5033448;28;20497;-59
2022/01/27 00:16:31;;;;;;;6.43;3.67;;;;;;;18.61;47.92;101856.22;5032153;28;20422;-59
2022/01/27 00:18:49;;;;;;;7.00;3.97;;;;;;;18.61;47.92;101857.03;5032552;28;20961;-59
2022/01/27 00:21:15;;;;;;;10.70;3.97;;;;;;;18.60;48.01;101854.50;5032775;28;20771;-59
2022/01/27 00:23:41;;;;;;;7.93;3.87;;;;;;;18.60;48.11;101852.50;5033073;28;20415;-59
2022/01/27 00:26:07;;;;;;;6.00;3.40;;;;;;;18.61;48.04;101848.44;5032309;28;20427;-59
2022/01/27 00:28:32;;;;;;;6.77;4.00;;;;;;;18.53;48.17;101842.78;5031746;28;20196;-59
2022/01/27 00:30:58;;;;;;;6.13;3.87;;;;;;;18.59;47.88;101835.69;5032616;28;20193;-59
2022/01/27 00:33:23;;;;;;;7.27;4.00;;;;;;;18.54;48.32;101828.16;5032264;28;20211;-59
2022/01/27 00:35:48;;;;;;;6.13;3.67;;;;;;;18.55;48.24;101835.53;5032287;28;20176;-59
2022/01/27 00:38:14;;;;;;;8.27;3.03;;;;;;;18.55;48.21;101829.81;5032363;28;20303;-60
2022/01/27 00:40:39;;;;;;;8.07;3.77;;;;;;;18.52;48.38;101819.06;5032595;28;20188;-59
2022/01/27 00:43:05;;;;;;;7.80;3.80;;;;;;;18.51;48.20;101817.38;5032450;28;20200;-59
2022/01/27 00:45:32;;;;;;;5.27;3.30;;;;;;;18.56;48.15;101808.59;5032215;28;20176;-59
2022/01/27 00:48:01;;;;;;;7.43;3.30;;;;;;;18.61;47.72;101814.13;5031074;28;20200;-59
2022/01/27 00:50:26;;;;;;;5.70;3.43;;;;;;;18.56;47.95;101805.75;5032067;28;20423;-59
2022/01/27 00:52:54;;;;;;;4.93;3.40;;;;;;;18.60;48.07;101806.75;5032210;28;20415;-59
2022/01/27 00:55:22;;;;;;;7.77;4.07;;;;;;;18.57;47.90;101804.56;5032374;28;20184;-59
2022/01/27 01:00:21;;;;;;;8.70;3.63;;;;;;;18.58;48.11;101800.53;5031753;28;20395;-60
2022/01/27 01:03:02;;;;;;;7.37;3.40;;;;;;;18.59;47.83;101804.22;5031282;28;20803;-59
2022/01/27 01:08:04;;;;;;;6.30;3.53;;;;;;;18.53;48.28;101809.31;5031219;28;20471;-59
2022/01/27 01:11:36;;;;;;;6.80;4.50;;;;;;;18.47;48.13;101804.94;5031658;28;20418;-59
2022/01/27 01:16:03;;;;;;;6.87;3.47;;;;;;;18.46;48.45;101805.31;5031337;28;20481;-59
2022/01/27 01:19:00;;;;;;;7.53;3.90;;;;;;;18.48;48.48;101812.38;5031343;28;20967;-59
2022/01/27 01:21:53;;;;;;;8.03;3.63;;;;;;;18.50;48.40;101821.44;5032032;28;20481;-59
2022/01/27 01:32:48;;;;;;;6.30;3.23;;;;;;;18.46;48.76;101800.41;5030260;28;20510;-59
2022/01/27 01:35:18;;;;;;;6.10;3.90;;;;;;;18.44;48.50;101799.94;5031558;28;20933;-59
2022/01/27 01:37:44;;;;;;;8.10;3.60;;;;;;;18.46;48.65;101803.28;5031004;28;20514;-59
2022/01/27 01:40:14;;;;;;;6.00;2.80;;;;;;;18.49;48.33;101799.75;5031403;28;20836;-59
2022/01/27 01:42:39;;;;;;;4.83;3.20;;;;;;;18.53;48.30;101799.88;5031419;28;20536;-59
2022/01/27 01:45:08;;;;;;;9.37;3.63;;;;;;;18.48;48.58;101805.78;5031250;28;20494;-59
2022/01/27 01:47:33;;;;;;;6.60;3.63;;;;;;;18.47;48.62;101804.13;5031229;28;20349;-59
2022/01/27 01:49:58;;;;;;;5.47;3.40;;;;;;;18.44;48.78;101799.94;5029941;28;20431;-59
2022/01/27 01:52:25;;;;;;;5.47;3.30;;;;;;;18.45;48.71;101800.75;5031078;28;20303;-59
2022/01/27 01:54:51;;;;;;;6.40;3.77;;;;;;;18.43;48.79;101792.53;5030940;28;20707;-59
2022/01/27 01:57:16;;;;;;;4.87;3.30;;;;;;;18.44;48.59;101791.34;5030365;28;20847;-59
2022/01/27 01:59:42;;;;;;;6.30;3.70;;;;;;;18.49;48.49;101791.16;5030560;28;20419;-59
2022/01/27 02:02:08;;;;;;;5.20;3.37;;;;;;;18.46;49.05;101780.41;5030807;28;20237;-59
2022/01/27 02:04:34;;;;;;;5.10;3.27;;;;;;;18.44;48.75;101784.78;5030858;28;20242;-59
2022/01/27 02:07:02;;;;;;;5.30;3.10;;;;;;;18.45;48.89;101787.31;5030704;28;20439;-59
2022/01/27 02:20:07;;;;;;;6.90;3.50;;;;;;;18.45;48.97;101775.88;5010284;28;20416;-59
2022/01/27 02:22:32;;;;;;;8.07;3.60;;;;;;;18.43;48.66;101780.25;5010673;28;20522;-59
2022/01/27 02:24:57;;;;;;;7.10;3.40;;;;;;;18.46;48.56;101785.28;5010982;28;20754;-59
2022/01/27 02:27:23;;;;;;;5.10;3.10;;;;;;;18.42;48.62;101785.13;5010713;28;20641;-59
2022/01/27 02:29:48;;;;;;;7.57;3.33;;;;;;;18.40;48.62;101784.63;5010526;28;20191;-60
2022/01/27 02:32:14;;;;;;;6.53;3.40;;;;;;;18.38;49.12;101781.31;5010120;28;20692;-59
2022/01/27 02:34:40;;;;;;;4.67;2.87;;;;;;;18.40;48.61;101783.78;5019761;28;20211;-59
2022/01/27 02:37:06;;;;;;;6.37;3.07;;;;;;;18.42;48.66;101785.13;5030107;28;20529;-59
2022/01/27 02:39:32;;;;;;;5.60;3.50;;;;;;;18.38;48.96;101789.88;5030070;28;20235;-59
2022/01/27 02:42:25;;;;;;;5.73;2.70;;;;;;;18.47;48.61;101790.66;5029662;28;20415;-60
2022/01/27 02:44:54;;;;;;;5.20;3.13;;;;;;;18.41;48.99;101785.50;5030280;28;20671;-59
2022/01/27 02:47:20;;;;;;;5.70;2.90;;;;;;;18.40;48.73;101784.63;5030029;28;20419;-61
2022/01/27 02:49:45;;;;;;;6.90;3.40;;;;;;;18.39;48.90;101782.97;5010713;28;20563;-60
2022/01/27 02:52:10;;;;;;;6.50;3.50;;;;;;;18.40;48.58;101778.91;5018986;28;20187;-59
2022/01/27 02:54:36;;;;;;;5.67;3.27;;;;;;;18.40;48.65;101778.91;5030433;28;20183;-59
2022/01/27 02:57:02;;;;;;;4.33;2.97;;;;;;;18.42;48.60;101779.41;5030182;28;20183;-59
2022/01/27 02:59:27;;;;;;;5.60;3.43;;;;;;;18.37;48.92;101782.47;5029426;28;20674;-60
2022/01/27 03:01:53;;;;;;;4.87;3.20;;;;;;;18.40;48.80;101793.22;5029728;28;20243;-59
2022/01/27 03:04:19;;;;;;;7.23;3.60;;;;;;;18.42;48.69;101787.97;5030149;28;20184;-59
2022/01/27 03:06:45;;;;;;;6.30;3.60;;;;;;;18.40;48.62;101784.63;5029557;28;20335;-59
2022/01/27 03:09:10;;;;;;;6.10;3.50;;;;;;;18.41;48.72;101783.44;5031173;28;20929;-60
2022/01/27 03:11:44;;;;;;;5.27;3.30;;;;;;;18.37;48.76;101781.63;5034994;28;20220;-60
2022/01/27 03:14:10;;;;;;;6.50;3.37;;;;;;;18.37;48.83;101798.78;5036997;28;20247;-60
2022/01/27 03:16:35;;;;;;;5.60;3.50;;;;;;;18.41;48.71;101800.59;5036656;28;20613;-59
2022/01/27 03:19:01;;;;;;;6.37;3.60;;;;;;;18.39;48.50;101805.84;5036098;28;20532;-59
2022/01/27 03:21:27;;;;;;;6.40;3.50;;;;;;;18.45;48.27;101809.34;5036299;28;20329;-59
2022/01/27 03:23:52;;;;;;;5.30;2.73;;;;;;;18.38;48.87;101817.63;5018027;28;20181;-59
2022/01/27 03:26:18;;;;;;;7.27;3.90;;;;;;;18.36;48.90;101826.53;5036658;28;20481;-59
2022/01/27 03:28:46;;;;;;;5.90;3.50;;;;;;;18.39;48.41;101822.16;5035627;28;20211;-59
2022/01/27 03:31:12;;;;;;;5.70;3.60;;;;;;;18.39;48.78;101819.28;5036205;28;20191;-61
2022/01/27 03:33:39;;;;;;;4.00;3.00;;;;;;;18.37;48.86;101813.09;5036494;28;20423;-59
2022/01/27 03:36:04;;;;;;;4.13;2.40;;;;;;;18.37;48.75;101796.75;5036403;28;20528;-59
2022/01/27 03:38:30;;;;;;;4.80;3.00;;;;;;;18.39;48.81;101790.69;5035763;28;20418;-59
2022/01/27 03:40:55;;;;;;;6.30;3.83;;;;;;;18.41;48.56;101788.34;5036158;28;20624;-59
2022/01/27 03:43:21;;;;;;;6.30;3.50;;;;;;;18.35;49.09;101784.84;5036177;28;20181;-59
2022/01/27 03:45:46;;;;;;;6.30;3.97;;;;;;;18.33;48.58;101778.63;5036094;28;20604;-60
2022/01/27 03:48:12;;;;;;;6.83;3.80;;;;;;;18.39;48.64;101777.25;5035691;28;20200;-59
2022/01/27 03:50:37;;;;;;;4.50;2.83;;;;;;;18.37;48.78;101762.44;5036181;28;20165;-59
2022/01/27 03:53:02;;;;;;;5.33;3.00;;;;;;;18.39;49.00;101762.09;5036203;28;20188;-59
2022/01/27 03:55:28;;;;;;;5.80;4.03;;;;;;;18.37;48.68;101744.47;5036548;28;20238;-59
2022/01/27 03:57:54;;;;;;;5.63;3.47;;;;;;;18.35;48.69;101747.66;5035611;28;20176;-60
2022/01/27 04:00:19;;;;;;;4.00;2.73;;;;;;;18.38;48.72;101747.00;5035798;28;20164;-60
2022/01/27 04:05:49;;;;;;;6.10;3.40;;;;;;;18.38;48.43;101749.84;5023983;28;20220;-59
2022/01/27 04:08:15;;;;;;;5.20;3.40;;;;;;;18.30;48.90;101755.56;5035555;28;20454;-59
2022/01/27 04:10:40;;;;;;;4.90;3.30;;;;;;;18.33;49.02;101755.75;5035824;28;20488;-59
2022/01/27 04:13:06;;;;;;;6.57;3.30;;;;;;;18.35;48.83;101767.69;5035404;28;20644;-59
2022/01/27 04:15:32;;;;;;;6.50;3.13;;;;;;;18.40;48.43;101764.63;5034619;28;20176;-59
2022/01/27 04:17:58;;;;;;;8.33;3.27;;;;;;;18.34;48.97;101759.44;5035937;28;20410;-59
2022/01/27 04:20:23;;;;;;;6.60;3.47;;;;;;;18.32;49.10;101762.63;5033214;28;20533;-59
2022/01/27 04:22:49;;;;;;;5.90;3.73;;;;;;;18.30;48.74;101764.97;5032935;28;20191;-59
2022/01/27 04:25:15;;;;;;;9.43;5.10;;;;;;;18.32;48.98;101764.66;5033018;28;20275;-59
2022/01/27 04:27:44;;;;;;;4.30;2.50;;;;;;;18.37;48.65;101768.16;5032624;28;20185;-59
2022/01/27 04:30:18;;;;;;;5.70;3.47;;;;;;;18.31;48.92;101760.13;5032129;28;20939;-60
2022/01/27 04:32:49;;;;;;;7.23;3.33;;;;;;;18.37;48.65;101759.59;5033121;28;20871;-59
2022/01/27 04:35:18;;;;;;;5.17;3.13;;;;;;;18.37;48.37;101751.00;5032531;28;20392;-59
2022/01/27 04:37:57;;;;;;;5.00;3.10;;;;;;;18.37;48.76;101750.19;5032498;28;20468;-59
2022/01/27 04:40:32;;;;;;;5.00;3.50;;;;;;;18.36;48.62;101740.75;5031767;28;20411;-59
2022/01/27 04:43:12;;;;;;;6.40;3.80;;;;;;;18.38;49.36;101741.28;5032752;28;20740;-59
2022/01/27 04:45:49;;;;;;;5.30;3.30;;;;;;;18.34;48.92;101734.56;5032626;28;20419;-59
2022/01/27 04:48:18;;;;;;;7.23;3.83;;;;;;;18.38;48.76;101740.41;5032428;28;20473;-59
2022/01/27 04:50:44;;;;;;;4.73;3.40;;;;;;;18.37;48.59;101742.44;5032043;28;20434;-59
2022/01/27 04:53:17;;;;;;;6.77;4.03;;;;;;;18.36;48.58;101748.50;5032347;28;20411;-59
2022/01/27 04:55:42;;;;;;;6.60;4.07;;;;;;;18.33;48.88;101757.78;5032116;28;20160;-59
2022/01/27 04:58:18;;;;;;;6.00;3.27;;;;;;;18.36;48.73;101745.66;5032419;28;20950;-59
2022/01/27 05:00:44;;;;;;;5.53;3.70;;;;;;;18.38;48.75;101749.84;5031824;28;20279;-59
2022/01/27 05:03:33;;;;;;;5.63;3.50;;;;;;;18.38;48.43;101741.28;5031768;28;20534;-59
2022/01/27 05:05:58;;;;;;;6.50;3.50;;;;;;;18.39;48.30;101745.81;5031624;28;20208;-59
2022/01/27 05:08:24;;;;;;;6.27;3.77;;;;;;;18.39;48.61;101747.81;5031514;28;20466;-59
2022/01/27 05:10:58;;;;;;;7.50;3.67;;;;;;;18.37;48.93;101744.47;5031998;28;20173;-60
2022/01/27 05:13:26;;;;;;;4.87;3.20;;;;;;;18.40;48.52;101735.19;5031788;28;20164;-59
2022/01/27 05:15:51;;;;;;;5.63;3.40;;;;;;;18.34;48.91;101734.56;5031933;28;21012;-59
2022/01/27 05:18:17;;;;;;;6.80;3.60;;;;;;;18.37;49.00;101733.03;5030728;28;20439;-59
2022/01/27 05:20:42;;;;;;;6.20;3.60;;;;;;;18.39;48.29;101724.94;5031303;28;20659;-59
2022/01/27 05:23:08;;;;;;;5.67;3.00;;;;;;;18.37;48.74;101722.41;5031952;28;20640;-59
2022/01/27 05:25:33;;;;;;;8.10;4.10;;;;;;;18.38;48.50;101729.84;5031687;28;20180;-59
2022/01/27 05:27:59;;;;;;;6.63;3.83;;;;;;;18.39;48.75;101734.38;5031600;28;20211;-60
2022/01/27 05:30:25;;;;;;;6.27;3.53;;;;;;;18.38;48.34;101729.84;5029479;28;20647;-59
2022/01/27 05:32:50;;;;;;;4.97;3.20;;;;;;;18.37;48.48;101731.00;5029722;28;20722;-59
2022/01/27 05:35:15;;;;;;;6.97;3.60;;;;;;;18.38;48.72;101729.84;5031619;28;20164;-59
2022/01/27 05:37:41;;;;;;;5.90;3.80;;;;;;;18.39;48.66;101739.22;5031301;28;20183;-59
2022/01/27 05:40:07;;;;;;;5.43;3.37;;;;;;;18.42;48.55;101738.56;5030824;28;20536;-59
2022/01/27 05:42:32;;;;;;;5.43;3.50;;;;;;;18.37;48.72;101741.59;5030952;28;20180;-59
2022/01/27 05:44:58;;;;;;;5.60;3.77;;;;;;;18.41;48.48;101746.28;5030846;28;20692;-59
2022/01/27 05:47:23;;;;;;;6.00;3.50;;;;;;;18.32;48.53;101742.63;5031111;28;20563;-59
2022/01/27 05:49:48;;;;;;;6.17;4.00;;;;;;;18.37;48.50;101745.28;5030589;28;20176;-59
2022/01/27 05:52:14;;;;;;;5.50;3.33;;;;;;;18.41;48.51;101754.84;5031216;28;20183;-59
2022/01/27 05:54:39;;;;;;;6.40;3.80;;;;;;;18.48;48.09;101749.44;5031094;28;20169;-60
2022/01/27 05:57:05;;;;;;;4.83;3.50;;;;;;;18.41;48.15;101756.91;5029349;28;20230;-59
2022/01/27 05:59:30;;;;;;;5.33;3.57;;;;;;;18.38;48.70;101771.88;5030589;28;20165;-59
2022/01/27 06:01:56;;;;;;;5.33;3.63;;;;;;;18.43;48.34;101771.69;5030324;28;20253;-59
2022/01/27 06:04:21;;;;;;;7.40;3.03;;;;;;;18.35;48.40;101770.53;5030961;28;20176;-59
2022/01/27 06:06:46;;;;;;;7.03;3.40;;;;;;;18.38;48.31;101772.72;5030981;28;20208;-59
2022/01/27 06:09:12;;;;;;;5.77;3.87;;;;;;;18.40;48.20;101775.22;5029703;28;20221;-59
2022/01/27 06:11:37;;;;;;;5.50;3.40;;;;;;;18.38;48.55;101784.16;5030766;28;20551;-59
2022/01/27 06:14:03;;;;;;;7.70;4.33;;;;;;;18.37;48.52;101782.47;5030942;28;20180;-59
2022/01/27 06:16:28;;;;;;;5.43;3.73;;;;;;;18.38;48.50;101783.31;5030696;28;20172;-60
2022/01/27 06:18:54;;;;;;;8.03;4.67;;;;;;;18.44;48.20;101784.78;5028681;28;20173;-59
2022/01/27 06:21:19;;;;;;;5.50;3.57;;;;;;;18.44;48.26;101796.22;5029407;28;20177;-59
2022/01/27 06:23:45;;;;;;;6.63;4.50;;;;;;;18.41;48.60;101789.16;5030777;28;20168;-59
2022/01/27 06:26:10;;;;;;;7.90;3.90;;;;;;;18.42;48.33;101799.41;5029366;28;20172;-59
2022/01/27 06:28:36;;;;;;;6.30;3.77;;;;;;;18.35;48.69;101802.00;5030137;28;20196;-60
2022/01/27 06:31:01;;;;;;;5.30;3.27;;;;;;;18.42;48.22;101808.00;5029508;28;20181;-59
2022/01/27 06:33:27;;;;;;;8.37;4.30;;;;;;;18.49;48.21;101808.31;5031015;28;20180;-59
2022/01/27 06:35:52;;;;;;;4.40;3.30;;;;;;;18.47;48.26;101806.97;5030571;28;20172;-59
2022/01/27 06:38:17;;;;;;;7.07;4.10;;;;;;;18.44;48.20;101805.66;5030294;28;20168;-59
2022/01/27 06:40:43;;;;;;;8.80;4.30;;;;;;;18.47;48.07;101806.97;5028628;28;20175;-59
2022/01/27 06:43:12;;;;;;;7.10;3.63;;;;;;;18.40;48.79;101806.66;5028922;28;20176;-59
2022/01/27 06:45:37;;;;;;;6.10;4.10;;;;;;;18.51;48.01;101803.06;5029496;28;20656;-59
2022/01/27 06:48:03;;;;;;;6.80;4.10;;;;;;;18.46;48.44;101808.19;5030273;28;20497;-59
2022/01/27 06:50:31;;;;;;;6.37;4.07;;;;;;;18.38;48.59;101809.91;5029321;28;20184;-60
2022/01/27 06:52:56;;;;;;;5.67;3.27;;;;;;;18.41;48.14;101814.09;5029924;28;20271;-59
2022/01/27 06:55:22;;;;;;;6.43;3.63;;;;;;;18.42;48.47;101801.47;5029261;28;20938;-59
2022/01/27 06:57:49;;;;;;;4.47;2.97;;;;;;;18.35;48.57;101804.84;5030319;28;20659;-59
2022/01/27 07:00:15;;;;;;;5.27;3.50;;;;;;;18.41;48.46;101808.38;5029872;28;20511;-60
2022/01/27 07:02:41;;;;;;;6.00;3.47;;;;;;;18.42;48.60;101795.75;5030032;28;20529;-59
2022/01/27 07:05:06;;;;;;;6.57;3.67;;;;;;;18.41;48.59;101794.88;5029628;28;20918;-59
2022/01/27 07:07:32;;;;;;;5.70;3.80;;;;;;;18.41;48.60;101806.31;5029809;28;20188;-59
2022/01/27 07:09:57;;;;;;;6.30;3.70;;;;;;;18.41;48.33;101800.59;5029098;28;20339;-59
2022/01/27 07:12:22;;;;;;;5.07;3.07;;;;;;;18.48;47.98;101797.22;5029064;28;20469;-59
2022/01/27 07:14:48;;;;;;;6.30;3.90;;;;;;;18.41;48.82;101794.06;5029933;28;20171;-59
2022/01/27 07:17:14;;;;;;;6.03;3.67;;;;;;;18.38;48.57;101801.31;5029675;28;20204;-59
2022/01/27 07:19:40;;;;;;;5.73;3.60;;;;;;;18.46;48.16;101797.56;5029838;28;20164;-59
2022/01/27 07:22:05;;;;;;;5.67;3.67;;;;;;;18.42;48.62;101802.28;5029777;28;20426;-59
2022/01/27 07:24:31;;;;;;;5.50;3.50;;;;;;;18.43;48.57;101806.84;5029675;28;20632;-59
2022/01/27 07:26:56;;;;;;;5.90;3.70;;;;;;;18.44;48.01;101805.66;5029972;28;20171;-59
2022/01/27 07:29:22;;;;;;;6.63;4.23;;;;;;;18.44;48.06;101810.53;5029139;28;20224;-59
2022/01/27 07:31:47;;;;;;;4.77;3.00;;;;;;;18.40;48.31;101810.38;5030080;28;20254;-59
2022/01/27 07:34:13;;;;;;;5.47;3.63;;;;;;;18.42;49.05;101816.56;5029770;28;20176;-59
2022/01/27 07:36:40;;;;;;;7.07;4.00;;;;;;;18.41;48.60;101829.19;5029631;28;20184;-59
2022/01/27 07:39:12;;;;;;;6.53;3.80;;;;;;;18.42;48.46;101830.88;5029308;28;20635;-59
2022/01/27 07:41:37;;;;;;;5.13;3.27;;;;;;;18.45;48.27;101835.91;5029628;28;20421;-59
2022/01/27 07:44:02;;;;;;;7.10;4.17;;;;;;;18.46;48.43;101831.88;5028674;28;20411;-59
2022/01/27 07:46:28;;;;;;;5.67;3.50;;;;;;;18.43;48.42;101838.28;5028951;28;20605;-60
2022/01/27 07:48:53;;;;;;;5.30;3.53;;;;;;;18.42;48.82;101828.00;5029121;28;20561;-59
2022/01/27 07:51:19;;;;;;;5.27;3.30;;;;;;;18.46;48.55;101828.19;5029553;28;20169;-59
2022/01/27 07:53:44;;;;;;;5.40;4.00;;;;;;;18.45;48.36;101824.47;5028454;28;20183;-59
2022/01/27 07:56:10;;;;;;;5.60;3.47;;;;;;;18.43;48.61;101823.16;5031982;28;20615;-59
2022/01/27 07:58:40;;;;;;;6.23;3.70;;;;;;;18.41;48.67;101817.75;5033009;28;20226;-59
2022/01/27 08:01:08;;;;;;;7.00;3.40;;;;;;;18.43;48.69;101808.84;5032246;28;20160;-59
2022/01/27 08:03:33;;;;;;;6.10;4.20;;;;;;;18.46;48.33;101793.88;5033330;28;20489;-59
2022/01/27 08:05:59;;;;;;;6.53;3.60;;;;;;;18.46;48.16;101802.47;5032693;28;20446;-59
2022/01/27 08:08:24;;;;;;;5.23;3.57;;;;;;;18.46;48.08;101796.75;5032928;28;20204;-59
2022/01/27 08:10:50;;;;;;;6.50;4.17;;;;;;;18.46;48.04;101788.16;5032607;28;20191;-59
2022/01/27 08:13:15;;;;;;;5.33;3.23;;;;;;;18.49;48.26;101796.88;5032544;28;20636;-60
2022/01/27 08:15:40;;;;;;;4.73;3.07;;;;;;;18.53;47.92;101785.59;5033643;28;20165;-59
2022/01/27 08:18:06;;;;;;;5.80;3.80;;;;;;;18.48;47.94;101792.34;5032802;28;20173;-59
2022/01/27 08:20:31;;;;;;;5.50;3.40;;;;;;;18.43;48.36;101783.97;5032195;28;20199;-59
2022/01/27 08:22:57;;;;;;;5.73;4.20;;;;;;;18.45;48.65;101778.72;5032781;28;20187;-59
2022/01/27 08:25:23;;;;;;;6.80;3.67;;;;;;;18.47;48.35;101782.06;5033190;28;20656;-59
2022/01/27 08:27:55;;;;;;;6.77;2.83;;;;;;;18.52;48.12;101790.44;5032705;28;20411;-59
2022/01/27 08:30:23;;;;;;;5.50;3.60;;;;;;;18.48;48.12;101778.06;5032368;28;20196;-59
2022/01/27 08:32:57;;;;;;;5.20;3.23;;;;;;;18.45;48.16;101781.59;5032472;28;20422;-59
2022/01/27 08:35:22;;;;;;;6.40;3.90;;;;;;;18.46;48.16;101766.09;5032307;28;20761;-59
2022/01/27 08:37:48;;;;;;;5.50;3.23;;;;;;;18.40;48.23;101773.19;5032475;28;20423;-60
2022/01/27 08:40:14;;;;;;;5.53;3.27;;;;;;;18.43;48.11;101758.22;5031990;28;20631;-60
2022/01/27 08:42:40;;;;;;;5.67;3.37;;;;;;;18.51;47.95;101754.47;5032707;28;20539;-59
2022/01/27 08:45:17;;;;;;;6.60;4.00;;;;;;;18.43;48.27;101738.22;5032669;28;20169;-59
2022/01/27 08:47:46;;;;;;;6.00;3.80;;;;;;;18.40;48.38;101730.31;5031733;28;20426;-59
2022/01/27 08:50:12;;;;;;;5.83;3.40;;;;;;;18.41;48.61;101725.44;5031671;28;20438;-59
2022/01/27 08:52:38;;;;;;;5.30;3.70;;;;;;;18.43;48.27;101721.06;5032621;28;20423;-59
2022/01/27 08:55:04;;;;;;;6.77;4.00;;;;;;;18.51;47.94;101725.88;5032810;28;20419;-59
2022/01/27 08:57:29;;;;;;;6.87;3.27;;;;;;;18.48;48.07;101715.13;5032562;28;20180;-58
2022/01/27 08:59:55;;;;;;;6.20;4.00;;;;;;;18.47;48.30;101716.28;5031667;28;20455;-59
2022/01/27 09:02:21;;;;;;;4.60;3.20;;;;;;;18.43;48.20;101712.47;5031657;28;20620;-59
2022/01/27 09:04:47;;;;;;;6.83;3.60;;;;;;;18.45;48.16;101712.09;5031858;28;20538;-59
2022/01/27 09:07:12;;;;;;;5.57;3.23;;;;;;;18.45;48.33;101718.69;5025544;28;20204;-59
2022/01/27 09:09:38;;;;;;;5.93;3.40;;;;;;;18.41;48.30;101714.00;5031903;28;20454;-59
2022/01/27 09:12:03;;;;;;;5.70;4.03;;;;;;;18.47;48.07;101712.63;5031579;28;20207;-59
2022/01/27 09:14:31;;;;;;;5.20;3.50;;;;;;;18.45;48.35;101712.94;5032421;28;20207;-59
2022/01/27 09:16:59;;;;;;;6.40;3.70;;;;;;;18.44;48.36;101702.72;5031414;28;20184;-59
2022/01/27 09:19:26;;;;;;;4.00;2.83;;;;;;;18.48;48.33;101697.13;5030852;28;20972;-59
2022/01/27 09:21:53;;;;;;;5.50;3.13;;;;;;;18.43;48.34;101706.75;5031336;28;20481;-59
2022/01/27 09:24:26;;;;;;;5.20;3.37;;;;;;;18.46;48.09;101705.22;5031898;28;20476;-59
2022/01/27 09:26:52;;;;;;;5.73;4.07;;;;;;;18.51;48.11;101705.84;5031711;28;20407;-59
2022/01/27 09:29:18;;;;;;;5.77;3.50;;;;;;;18.48;47.96;101708.56;5031141;28;20966;-59
2022/01/27 09:31:45;;;;;;;7.30;4.20;;;;;;;18.51;47.94;101705.84;5030316;28;20662;-59
2022/01/27 09:34:10;;;;;;;6.17;3.90;;;;;;;18.48;47.95;101703.69;5031757;28;20419;-59
2022/01/27 09:36:36;;;;;;;4.70;3.33;;;;;;;18.51;47.53;101708.69;5031311;28;20469;-59
2022/01/27 09:39:01;;;;;;;5.43;3.33;;;;;;;18.52;47.99;101703.84;5031103;28;20165;-59
2022/01/27 09:41:27;;;;;;;5.87;3.60;;;;;;;18.48;48.12;101715.13;5030855;28;20176;-59
2022/01/27 09:43:54;;;;;;;5.80;3.60;;;;;;;18.48;48.22;101712.28;5031701;28;20632;-59
2022/01/27 09:46:24;;;;;;;5.50;3.50;;;;;;;18.47;48.17;101707.72;5031241;28;20411;-59
2022/01/27 09:48:50;;;;;;;5.40;3.63;;;;;;;18.48;48.14;101714.28;5030694;28;20883;-59
2022/01/27 09:53:52;;;;;;;5.63;3.47;;;;;;;18.52;48.14;101716.09;5031157;28;20399;-59
2022/01/27 09:56:18;;;;;;;5.00;3.23;;;;;;;18.46;48.23;101726.06;5031061;28;20419;-59
2022/01/27 09:58:44;;;;;;;5.37;3.47;;;;;;;18.51;47.71;101716.47;5030505;28;20426;-59
2022/01/27 10:01:09;;;;;;;5.10;3.50;;;;;;;18.55;47.68;101712.56;5030948;28;20176;-59
2022/01/27 10:03:35;;;;;;;5.93;3.60;;;;;;;18.51;47.80;101708.69;5030606;28;20188;-59
2022/01/27 10:06:15;;;;;;;5.10;3.50;;;;;;;18.47;47.80;101710.56;5013132;28;20330;-59
2022/01/27 10:08:42;;;;;;;5.60;3.80;;;;;;;18.54;47.81;101710.03;5030943;28;20465;-59
2022/01/27 10:11:19;;;;;;;5.40;3.70;;;;;;;18.51;48.09;101708.69;5030583;28;20423;-59
2022/01/27 10:13:46;;;;;;;5.53;3.67;;;;;;;18.50;47.99;101712.75;5030444;28;20411;-58
2022/01/27 10:16:28;;;;;;;6.03;3.30;;;;;;;18.47;48.15;101707.72;5030893;28;20427;-59
2022/01/27 10:19:04;;;;;;;5.73;3.27;;;;;;;18.50;47.99;101704.19;5029715;28;20899;-59
2022/01/27 10:21:30;;;;;;;4.97;3.50;;;;;;;18.52;47.86;101701.78;5030633;28;20418;-60
2022/01/27 10:23:57;;;;;;;5.77;3.70;;;;;;;18.48;48.36;101709.41;5030473;28;20768;-59
2022/01/27 10:26:25;;;;;;;6.80;4.20;;;;;;;18.50;48.21;101709.91;5030885;28;20156;-59
2022/01/27 10:29:13;;;;;;;6.50;4.30;;;;;;;18.51;48.19;101713.59;5030157;28;20451;-59
2022/01/27 10:31:39;;;;;;;5.50;3.40;;;;;;;18.55;47.64;101705.97;5030655;28;20428;-59
2022/01/27 10:34:06;;;;;;;5.37;3.67;;;;;;;18.48;48.08;101703.69;5029421;28;20415;-59
2022/01/27 10:36:33;;;;;;;5.30;3.43;;;;;;;18.48;47.99;101708.56;5030710;28;20437;-59
2022/01/27 10:39:20;;;;;;;5.53;3.90;;;;;;;18.54;47.81;101699.44;5030297;28;20415;-59
2022/01/27 10:42:00;;;;;;;5.67;3.83;;;;;;;18.51;47.91;101697.25;5030668;28;20427;-60
2022/01/27 10:44:33;;;;;;;5.17;3.33;;;;;;;18.55;47.78;101700.25;5030211;28;20784;-59
2022/01/27 10:47:21;;;;;;;5.60;3.67;;;;;;;18.54;47.90;101698.59;5028477;28;20827;-59
2022/01/27 10:52:45;;;;;;;5.73;3.67;;;;;;;18.55;48.36;101697.41;5030610;28;20422;-59
2022/01/27 10:55:13;;;;;;;4.53;3.13;;;;;;;18.56;47.64;101702.78;5030274;28;20549;-59
2022/01/27 10:57:38;;;;;;;4.93;3.50;;;;;;;18.50;48.16;101700.47;5030575;28;20911;-59
2022/01/27 11:00:14;;;;;;;6.43;3.87;;;;;;;18.52;47.90;101698.13;5028051;28;20423;-59
2022/01/27 11:02:52;;;;;;;4.73;3.30;;;;;;;18.47;47.93;101701.19;5030335;28;20238;-59
2022/01/27 11:05:22;;;;;;;6.03;4.20;;;;;;;18.50;48.02;101700.47;5029856;28;20498;-59
2022/01/27 11:07:47;;;;;;;5.70;3.73;;;;;;;18.50;47.99;101706.19;5029189;28;20769;-59
2022/01/27 11:10:15;;;;;;;6.53;4.23;;;;;;;18.54;47.77;101702.31;5029516;28;20426;-59
2022/01/27 11:12:42;;;;;;;6.30;4.03;;;;;;;18.52;48.14;101707.50;5029996;28;20246;-60
2022/01/27 11:15:11;;;;;;;5.07;3.27;;;;;;;18.46;48.11;101700.31;5030468;28;20883;-59
2022/01/27 11:17:39;;;;;;;5.77;3.70;;;;;;;18.53;47.59;101708.38;5027901;28;20462;-59
2022/01/27 11:27:45;;;;;;;5.83;3.47;;;;;;;18.55;47.85;101691.69;5028784;28;20435;-59
2022/01/27 11:30:17;;;;;;;5.13;3.67;;;;;;;18.48;47.84;101685.69;5030209;28;20410;-59
2022/01/27 11:33:00;;;;;;;6.20;4.03;;;;;;;18.48;48.17;101680.81;5030186;28;20423;-59
2022/01/27 11:35:26;;;;;;;5.80;3.60;;;;;;;18.52;47.74;101667.47;5033731;28;20411;-59
2022/01/27 11:37:56;;;;;;;6.97;4.10;;;;;;;18.46;48.08;101654.56;5033608;28;20473;-59
2022/01/27 11:40:24;;;;;;;5.50;3.87;;;;;;;18.47;48.40;101661.13;5033520;28;20191;-59
2022/01/27 11:42:55;;;;;;;5.10;3.27;;;;;;;18.52;47.88;101640.91;5033501;28;20437;-60
2022/01/27 11:45:20;;;;;;;8.93;5.80;;;;;;;18.14;47.96;101635.28;5033692;28;20422;-60
2022/01/27 11:47:50;;;;;;;11.60;6.90;;;;;;;17.99;47.26;101627.28;5033527;28;20419;-60
2022/01/27 11:50:36;;;;;;;17.87;9.80;;;;;;;18.04;44.11;101623.38;5032671;28;20184;-59
2022/01/27 11:53:06;;;;;;;17.10;9.20;;;;;;;18.16;44.06;101615.75;5032764;28;20419;-59
2022/01/27 11:55:34;;;;;;;13.07;8.90;;;;;;;18.25;43.95;101615.69;5033653;28;21021;-59
2022/01/27 11:58:17;;;;;;;14.80;9.27;;;;;;;18.28;44.11;101615.00;5033209;28;20414;-59
2022/01/27 12:01:06;;;;;;;14.00;8.23;;;;;;;18.25;45.09;101613.66;5032728;28;20427;-59
2022/01/27 12:03:32;;;;;;;16.00;8.70;;;;;;;18.28;44.51;101607.28;5032522;28;20838;-59
2022/01/27 12:06:42;;;;;;;14.53;8.23;;;;;;;18.32;44.42;101610.25;5032864;28;20462;-58
2022/01/27 12:09:19;;;;;;;11.67;7.17;;;;;;;18.31;44.77;101611.44;4990988;28;20288;-60
2022/01/27 12:11:51;;;;;;;13.70;8.13;;;;;;;18.30;45.17;101604.03;5030983;28;20434;-58
2022/01/27 12:14:25;;;;;;;14.63;6.93;;;;;;;18.31;44.94;101608.59;5030763;28;20847;-57
2022/01/27 12:17:09;;;;;;;11.93;7.40;;;;;;;18.31;45.13;101609.41;5032485;28;20536;-58